Terminal Aerodrome Forecast
Issued by NWS

Home | Current Version | Previous Version | Text Only | Print | Product List | Glossary On
Versions: 1 2 3 4 5 6 7 8 9 10 11 12 13 14 15 16 17 18 19 20 21 22 23 24 25 26 27 28 29 30 31 32 33 34 35 36 37 38 39 40 41 42 43 44 45 46 47 48 49 50
000
FTUS41 KALY 270534
TAFPSF
TAF
KPSF 270534Z 2706/2806 VRB03KT P6SM VCSH SCT035 BKN100
      TEMPO 2707/2711 -SHRA BKN030
     FM271100 22006KT 5SM -SHRA BR SCT010 OVC030
      TEMPO 2713/2717 2SM SHRA BR OVC010
     FM271800 25009KT 6SM BR VCSH BKN010 BKN030
     FM280000 VRB03KT 4SM BR VCSH BKN010 BKN020=

USA.gov is the U.S. government's official web portal to all federal, state and local government web resources and services.